Time;durP1;ratioP1;P1;durP2;ratioP2;P2;SDS_P1;SDS_P2;PMS_P1;PMS_P2;Temp;Humidity;BMP_temperature;BMP_pressure;BME280_temperature;BME280_humidity;BME280_pressure;Samples;Min_cycle;Max_cycle;Signal;HPM_P1;HPM_P2
2022/04/21 00:02:06;;;;;;;;;;;9.80;80.20;;;;;;5049723;28;19916;-49
2022/04/21 00:04:32;;;;;;;;;;;9.80;79.30;;;;;;5048677;28;20468;-48
2022/04/21 00:06:57;;;;;;;;;;;9.70;80.20;;;;;;5032950;28;19963;-48
2022/04/21 00:09:23;;;;;;;;;;;9.70;80.30;;;;;;5051220;28;19917;-48
2022/04/21 00:11:48;;;;;;;;;;;9.70;80.50;;;;;;5039970;28;20000;-48
2022/04/21 00:14:14;;;;;;;;;;;9.70;80.20;;;;;;5032655;28;19917;-48
2022/04/21 00:16:39;;;;;;;;;;;9.70;80.40;;;;;;5031336;28;20393;-49
2022/04/21 00:19:05;;;;;;;;;;;9.70;81.20;;;;;;5031876;28;19956;-48
2022/04/21 00:23:26;;;;;;;;;;;9.60;81.00;;;;;;5035735;28;20633;-48
2022/04/21 00:24:15;;;;;;;;;;;9.60;80.80;;;;;;5050541;28;19917;-48
2022/04/21 00:26:41;;;;;;;;;;;9.60;80.60;;;;;;5046946;28;19924;-48
2022/04/21 00:29:06;;;;;;;;;;;9.50;81.00;;;;;;5030139;28;20011;-49
2022/04/21 00:31:32;;;;;;;;;;;9.50;81.50;;;;;;5031697;28;19917;-48
2022/04/21 00:33:58;;;;;;;;;;;9.50;81.30;;;;;;5040568;28;19916;-48
2022/04/21 00:36:23;;;;;;;;;;;9.50;82.00;;;;;;5038074;28;19921;-48
2022/04/21 00:38:49;;;;;;;;;;;9.40;82.00;;;;;;5031000;28;20201;-47
2022/04/21 00:41:14;;;;;;;;;;;9.40;82.90;;;;;;5030517;28;20322;-48
2022/04/21 00:43:39;;;;;;;;;;;9.40;83.00;;;;;;5035621;28;19917;-49
2022/04/21 00:46:08;;;;;;;;;;;9.40;83.00;;;;;;5031794;28;19956;-48
2022/04/21 00:48:33;;;;;;;;;;;9.40;83.40;;;;;;5046252;28;19917;-49
2022/04/21 00:51:00;;;;;;;;;;;9.40;83.10;;;;;;5043539;28;19917;-48
2022/04/21 00:53:25;;;;;;;;;;;9.40;83.70;;;;;;5041059;28;19916;-48
2022/04/21 00:55:52;;;;;;;;;;;9.30;83.20;;;;;;5041510;28;19943;-48
2022/04/21 00:58:18;;;;;;;;;;;9.30;84.30;;;;;;5029610;28;20382;-48
2022/04/21 01:00:44;;;;;;;;;;;9.30;84.20;;;;;;5048040;28;19943;-48
2022/04/21 01:03:10;;;;;;;;;;;9.30;84.50;;;;;;5049579;28;19963;-49
2022/04/21 01:05:36;;;;;;;;;;;9.30;84.30;;;;;;5050090;28;19960;-48
2022/04/21 01:08:01;;;;;;;;;;;9.20;83.80;;;;;;5046700;28;19986;-48
2022/04/21 01:10:27;;;;;;;;;;;9.10;84.10;;;;;;5049837;28;19983;-48
2022/04/21 01:12:53;;;;;;;;;;;9.10;85.10;;;;;;5044195;28;19916;-47
2022/04/21 01:15:19;;;;;;;;;;;9.00;85.30;;;;;;5035352;28;19970;-48
2022/04/21 01:17:45;;;;;;;;;;;9.00;86.10;;;;;;5031913;28;19928;-48
2022/04/21 01:20:15;;;;;;;;;;;9.00;86.00;;;;;;5028920;28;19917;-47
2022/04/21 01:22:41;;;;;;;;;;;9.00;86.00;;;;;;5030731;28;20334;-50
2022/04/21 01:25:06;;;;;;;;;;;8.90;85.20;;;;;;5033096;28;20010;-47
2022/04/21 01:27:33;;;;;;;;;;;8.90;85.70;;;;;;5030390;28;19971;-49
2022/04/21 01:30:00;;;;;;;;;;;8.90;85.90;;;;;;5047670;28;20539;-48
2022/04/21 01:32:26;;;;;;;;;;;8.90;86.40;;;;;;5037683;28;20010;-48
2022/04/21 01:34:51;;;;;;;;;;;8.90;86.90;;;;;;5036720;28;19928;-48
2022/04/21 01:42:45;;;;;;;;;;;8.90;86.80;;;;;;5028866;28;19917;-48
2022/04/21 01:45:10;;;;;;;;;;;8.80;85.80;;;;;;5031143;28;19916;-47
2022/04/21 01:47:36;;;;;;;;;;;8.70;86.30;;;;;;5037636;28;19920;-48
2022/04/21 01:50:07;;;;;;;;;;;8.70;87.50;;;;;;5043990;28;19920;-48
2022/04/21 01:52:33;;;;;;;;;;;8.70;88.10;;;;;;5043440;28;19939;-48
2022/04/21 01:54:59;;;;;;;;;;;8.70;88.20;;;;;;5048962;28;19923;-49
2022/04/21 01:57:24;;;;;;;;;;;8.70;88.10;;;;;;5047312;28;19924;-51
2022/04/21 01:59:51;;;;;;;;;;;8.60;88.30;;;;;;5045776;28;20374;-49
2022/04/21 02:02:17;;;;;;;;;;;8.70;89.00;;;;;;5029034;28;19924;-48
2022/04/21 02:04:42;;;;;;;;;;;8.60;88.70;;;;;;5029771;28;19917;-48
2022/04/21 02:07:08;;;;;;;;;;;8.60;88.20;;;;;;5034014;28;19917;-48
2022/04/21 02:09:34;;;;;;;;;;;8.60;88.30;;;;;;5030927;28;19924;-47
2022/04/21 02:11:59;;;;;;;;;;;8.50;88.40;;;;;;5032117;28;19917;-48
2022/04/21 02:14:25;;;;;;;;;;;8.40;88.70;;;;;;5034164;28;19917;-48
2022/04/21 02:16:50;;;;;;;;;;;8.40;88.90;;;;;;5034027;28;20020;-48
2022/04/21 02:19:16;;;;;;;;;;;8.40;89.70;;;;;;5051892;28;19931;-48
2022/04/21 02:21:41;;;;;;;;;;;8.40;90.30;;;;;;5051522;28;19917;-48
2022/04/21 02:24:07;;;;;;;;;;;8.40;90.10;;;;;;5051999;28;20007;-49
2022/04/21 02:26:32;;;;;;;;;;;8.30;90.20;;;;;;5053048;28;19924;-48
2022/04/21 02:28:58;;;;;;;;;;;8.30;90.40;;;;;;5052673;28;19927;-48
2022/04/21 02:31:23;;;;;;;;;;;8.30;90.60;;;;;;5046973;28;19917;-47
2022/04/21 02:33:49;;;;;;;;;;;8.30;90.70;;;;;;5042992;28;20275;-49
2022/04/21 02:36:14;;;;;;;;;;;8.30;90.90;;;;;;5034800;28;19968;-47
2022/04/21 02:38:40;;;;;;;;;;;8.30;91.00;;;;;;5037386;28;19942;-47
2022/04/21 02:41:06;;;;;;;;;;;8.30;90.90;;;;;;5052892;28;20448;-48
2022/04/21 02:43:32;;;;;;;;;;;8.40;91.10;;;;;;5051093;28;19916;-48
2022/04/21 02:45:57;;;;;;;;;;;8.30;91.00;;;;;;5034881;28;19923;-47
2022/04/21 02:48:23;;;;;;;;;;;8.30;90.90;;;;;;5034956;28;19947;-48
2022/04/21 02:50:49;;;;;;;;;;;8.30;91.00;;;;;;5036277;28;19944;-48
2022/04/21 02:53:15;;;;;;;;;;;8.20;90.80;;;;;;5046107;28;19917;-49
2022/04/21 02:58:24;;;;;;;;;;;8.20;91.30;;;;;;5033273;28;19964;-49
2022/04/21 03:00:50;;;;;;;;;;;8.20;91.50;;;;;;5049845;28;20405;-48
2022/04/21 03:03:15;;;;;;;;;;;8.10;91.40;;;;;;5048953;28;20007;-47
2022/04/21 03:05:42;;;;;;;;;;;8.10;91.30;;;;;;5050060;28;20010;-48
2022/04/21 03:08:07;;;;;;;;;;;8.10;91.40;;;;;;5051863;28;20262;-47
2022/04/21 03:10:33;;;;;;;;;;;8.00;91.80;;;;;;5040195;28;19916;-48
2022/04/21 03:12:58;;;;;;;;;;;8.00;91.80;;;;;;5034371;28;20268;-48
2022/04/21 03:15:24;;;;;;;;;;;8.00;91.80;;;;;;5047263;28;20435;-48
2022/04/21 03:17:49;;;;;;;;;;;8.00;91.70;;;;;;5052127;28;19921;-49
2022/04/21 03:25:45;;;;;;;;;;;7.90;91.80;;;;;;5036687;28;19921;-48
2022/04/21 03:28:10;;;;;;;;;;;7.90;92.10;;;;;;5043353;28;19917;-48
2022/04/21 03:30:36;;;;;;;;;;;7.90;91.90;;;;;;5051721;28;19927;-48
2022/04/21 03:33:01;;;;;;;;;;;7.90;92.20;;;;;;5038620;28;19975;-49
2022/04/21 03:35:27;;;;;;;;;;;7.90;92.50;;;;;;5034356;28;20374;-48
2022/04/21 03:37:53;;;;;;;;;;;7.90;92.60;;;;;;5032493;28;19921;-50
2022/04/21 03:40:18;;;;;;;;;;;7.90;92.60;;;;;;5032409;28;19917;-48
2022/04/21 03:42:44;;;;;;;;;;;7.90;92.40;;;;;;5032645;28;19964;-47
2022/04/21 03:45:09;;;;;;;;;;;7.90;92.40;;;;;;5033637;28;19924;-48
2022/04/21 03:47:34;;;;;;;;;;;7.90;92.50;;;;;;5032200;28;19920;-47
2022/04/21 03:50:00;;;;;;;;;;;7.80;92.20;;;;;;5044876;28;19946;-48
2022/04/21 03:52:25;;;;;;;;;;;7.80;92.60;;;;;;5050027;28;19931;-48
2022/04/21 03:54:51;;;;;;;;;;;7.70;92.60;;;;;;5043340;28;19971;-48
2022/04/21 03:57:16;;;;;;;;;;;7.70;92.70;;;;;;5039764;28;20401;-48
2022/04/21 03:59:42;;;;;;;;;;;7.70;93.10;;;;;;5048126;28;19916;-48
2022/04/21 04:02:07;;;;;;;;;;;7.70;92.80;;;;;;5050983;28;19917;-48
2022/04/21 04:04:34;;;;;;;;;;;7.70;93.20;;;;;;5050876;28;19917;-49
2022/04/21 04:12:31;;;;;;;;;;;7.70;93.10;;;;;;5031573;28;19917;-47
2022/04/21 04:14:57;;;;;;;;;;;7.70;93.20;;;;;;5033754;28;19921;-48
2022/04/21 04:17:22;;;;;;;;;;;7.70;93.20;;;;;;5047743;28;20019;-48
2022/04/21 04:19:48;;;;;;;;;;;7.60;92.90;;;;;;5051654;28;19917;-48
2022/04/21 04:22:14;;;;;;;;;;;7.60;92.90;;;;;;5050876;28;19917;-47
2022/04/21 04:24:40;;;;;;;;;;;7.50;93.10;;;;;;5049555;28;19948;-47
2022/04/21 04:27:05;;;;;;;;;;;7.50;93.10;;;;;;5049775;28;19916;-47
2022/04/21 04:29:31;;;;;;;;;;;7.50;93.30;;;;;;5048778;28;19917;-47
2022/04/21 04:31:57;;;;;;;;;;;7.40;93.40;;;;;;5050400;28;20297;-47
2022/04/21 04:34:23;;;;;;;;;;;7.50;93.90;;;;;;5037208;28;19924;-48
2022/04/21 04:36:48;;;;;;;;;;;7.40;93.80;;;;;;5030527;28;19921;-50
2022/04/21 04:39:14;;;;;;;;;;;7.40;93.80;;;;;;5036077;28;19924;-51
2022/04/21 04:44:24;;;;;;;;;;;7.40;94.10;;;;;;5046874;28;19920;-50
2022/04/21 04:46:49;;;;;;;;;;;7.50;94.30;;;;;;5030850;28;20378;-50
2022/04/21 04:49:15;;;;;;;;;;;7.50;94.00;;;;;;5032551;28;19996;-49
2022/04/21 04:51:41;;;;;;;;;;;7.50;94.40;;;;;;5046516;28;20354;-48
2022/04/21 04:54:08;;;;;;;;;;;7.50;93.90;;;;;;5045331;28;19948;-48
2022/04/21 04:56:34;;;;;;;;;;;7.60;94.30;;;;;;5028500;28;19967;-49
2022/04/21 04:59:00;;;;;;;;;;;7.50;94.30;;;;;;5043437;28;20428;-48
2022/04/21 05:01:32;;;;;;;;;;;7.50;94.00;;;;;;5039137;28;19916;-47
2022/04/21 05:04:00;;;;;;;;;;;7.50;94.20;;;;;;5047139;28;19962;-47
2022/04/21 05:06:26;;;;;;;;;;;7.50;94.40;;;;;;5029890;28;19964;-49
2022/04/21 05:08:52;;;;;;;;;;;7.50;94.40;;;;;;5031733;28;19971;-48
2022/04/21 05:11:17;;;;;;;;;;;7.60;94.40;;;;;;5028932;28;19924;-48
2022/04/21 05:13:44;;;;;;;;;;;7.60;94.60;;;;;;5031476;28;19924;-47
2022/04/21 05:16:09;;;;;;;;;;;7.60;94.70;;;;;;5044122;28;19917;-48
2022/04/21 05:18:35;;;;;;;;;;;7.60;95.00;;;;;;5049387;28;19999;-48
2022/04/21 05:21:00;;;;;;;;;;;7.70;94.90;;;;;;5048646;28;20063;-48
2022/04/21 05:23:29;;;;;;;;;;;7.70;95.30;;;;;;5049484;28;19920;-48
2022/04/21 05:25:54;;;;;;;;;;;7.80;95.00;;;;;;5046991;28;19920;-51
2022/04/21 05:28:20;;;;;;;;;;;7.90;94.80;;;;;;5048309;28;20066;-47
2022/04/21 05:30:55;;;;;;;;;;;7.90;94.80;;;;;;5047833;28;20389;-49
2022/04/21 05:33:22;;;;;;;;;;;8.00;94.80;;;;;;5046507;28;19995;-48
2022/04/21 05:35:48;;;;;;;;;;;8.10;94.70;;;;;;5046471;28;19916;-49
2022/04/21 05:38:16;;;;;;;;;;;8.20;94.30;;;;;;5049058;28;20313;-49
2022/04/21 05:40:42;;;;;;;;;;;8.20;94.60;;;;;;5047560;28;20374;-48
2022/04/21 05:43:10;;;;;;;;;;;8.20;94.40;;;;;;5029791;28;20031;-49
2022/04/21 05:45:36;;;;;;;;;;;8.40;94.20;;;;;;5033668;28;19917;-50
2022/04/21 05:48:02;;;;;;;;;;;8.50;94.10;;;;;;5042786;28;19925;-48
2022/04/21 05:50:28;;;;;;;;;;;8.50;93.90;;;;;;5032526;28;20390;-47
2022/04/21 05:52:54;;;;;;;;;;;8.60;94.10;;;;;;5039619;28;19971;-48
2022/04/21 05:55:20;;;;;;;;;;;8.70;94.20;;;;;;5035328;28;19921;-50
2022/04/21 05:57:45;;;;;;;;;;;8.70;93.30;;;;;;5043062;28;19920;-48
2022/04/21 06:00:11;;;;;;;;;;;8.80;93.10;;;;;;5033348;28;20405;-47
2022/04/21 06:02:37;;;;;;;;;;;8.90;92.70;;;;;;5038445;28;19920;-49
2022/04/21 06:05:03;;;;;;;;;;;9.00;92.70;;;;;;5033293;28;19917;-48
2022/04/21 06:07:29;;;;;;;;;;;9.00;92.50;;;;;;5033761;28;19974;-49
2022/04/21 06:09:54;;;;;;;;;;;9.10;92.40;;;;;;5048183;28;19916;-48
2022/04/21 06:12:20;;;;;;;;;;;9.20;92.40;;;;;;5029839;28;19953;-48
2022/04/21 06:14:45;;;;;;;;;;;9.30;92.20;;;;;;5028248;28;20437;-48
2022/04/21 06:17:11;;;;;;;;;;;9.40;91.40;;;;;;5030820;28;20232;-47
2022/04/21 06:19:36;;;;;;;;;;;9.50;91.30;;;;;;5031736;28;20360;-48
2022/04/21 06:22:02;;;;;;;;;;;9.60;91.40;;;;;;5029897;28;19916;-48
2022/04/21 06:24:28;;;;;;;;;;;9.70;90.80;;;;;;5043071;28;19916;-48
2022/04/21 06:26:54;;;;;;;;;;;9.80;90.90;;;;;;5044084;28;19970;-48
2022/04/21 06:29:19;;;;;;;;;;;9.90;90.70;;;;;;5044604;28;20506;-49
2022/04/21 06:31:45;;;;;;;;;;;10.00;90.50;;;;;;5031388;28;19917;-48
2022/04/21 06:34:11;;;;;;;;;;;10.10;90.60;;;;;;5036625;28;19925;-49
2022/04/21 06:36:36;;;;;;;;;;;10.20;90.00;;;;;;5036806;28;20382;-50
2022/04/21 06:39:03;;;;;;;;;;;10.30;90.00;;;;;;5047753;28;19916;-49
2022/04/21 06:41:28;;;;;;;;;;;10.40;88.30;;;;;;5047141;28;20416;-48
2022/04/21 06:49:22;;;;;;;;;;;10.60;87.10;;;;;;5046937;28;19924;-49
2022/04/21 06:51:47;;;;;;;;;;;10.70;85.50;;;;;;5023315;28;19917;-48
2022/04/21 06:54:13;;;;;;;;;;;10.70;86.00;;;;;;5030215;28;19977;-49
2022/04/21 06:56:38;;;;;;;;;;;10.80;85.90;;;;;;5040499;28;20267;-49
2022/04/21 06:59:05;;;;;;;;;;;10.90;85.80;;;;;;5032830;28;19924;-50
2022/04/21 07:01:31;;;;;;;;;;;10.90;85.50;;;;;;5042640;28;19932;-49
2022/04/21 07:03:56;;;;;;;;;;;11.10;86.80;;;;;;5051519;28;19920;-48
2022/04/21 07:06:22;;;;;;;;;;;11.10;85.00;;;;;;5050452;28;19927;-48
2022/04/21 07:08:48;;;;;;;;;;;11.20;86.10;;;;;;5034176;28;20292;-49
2022/04/21 07:11:15;;;;;;;;;;;11.30;83.50;;;;;;5030309;28;19921;-48
2022/04/21 07:13:41;;;;;;;;;;;11.40;83.90;;;;;;5037946;28;20377;-47
2022/04/21 07:16:06;;;;;;;;;;;11.50;83.40;;;;;;5042065;28;19925;-48
2022/04/21 07:18:32;;;;;;;;;;;11.60;83.00;;;;;;5033294;28;19975;-50
2022/04/21 07:21:00;;;;;;;;;;;11.60;82.20;;;;;;5034420;28;19923;-50
2022/04/21 07:23:25;;;;;;;;;;;11.70;81.60;;;;;;5032737;28;19924;-49
2022/04/21 07:25:51;;;;;;;;;;;11.80;82.20;;;;;;5039196;28;19917;-48
2022/04/21 07:28:17;;;;;;;;;;;11.80;81.70;;;;;;5045043;28;19932;-49
2022/04/21 07:30:42;;;;;;;;;;;11.90;81.40;;;;;;5034940;28;19917;-49
2022/04/21 07:33:07;;;;;;;;;;;12.00;81.40;;;;;;5035218;28;19980;-50
2022/04/21 07:35:34;;;;;;;;;;;12.10;81.70;;;;;;5037973;28;19924;-49
2022/04/21 07:37:59;;;;;;;;;;;12.20;81.90;;;;;;5034840;28;19971;-49
2022/04/21 07:40:25;;;;;;;;;;;12.30;81.90;;;;;;5041808;28;19920;-48
2022/04/21 07:42:50;;;;;;;;;;;12.40;79.70;;;;;;5051266;28;19920;-49
2022/04/21 07:45:17;;;;;;;;;;;12.40;79.60;;;;;;5048791;28;20322;-48
2022/04/21 07:47:42;;;;;;;;;;;12.50;79.00;;;;;;5047356;28;19917;-49
2022/04/21 07:50:08;;;;;;;;;;;12.60;79.40;;;;;;5042142;28;20285;-48
2022/04/21 07:55:19;;;;;;;;;;;12.80;79.00;;;;;;5034835;28;20357;-49
2022/04/21 07:57:45;;;;;;;;;;;12.90;78.70;;;;;;5034658;28;19964;-49
2022/04/21 08:00:12;;;;;;;;;;;12.90;76.60;;;;;;5033366;28;19917;-48
2022/04/21 08:02:41;;;;;;;;;;;13.00;76.90;;;;;;5031020;28;19924;-49
2022/04/21 08:05:08;;;;;;;;;;;13.10;76.20;;;;;;5033598;28;19972;-49
2022/04/21 08:07:34;;;;;;;;;;;13.10;76.50;;;;;;5037430;28;19916;-49
2022/04/21 08:10:04;;;;;;;;;;;13.20;75.90;;;;;;5021240;28;19927;-50
2022/04/21 08:12:36;;;;;;;;;;;13.20;75.40;;;;;;5036787;28;20322;-52
2022/04/21 08:15:01;;;;;;;;;;;13.30;75.00;;;;;;5036268;28;20305;-50
2022/04/21 08:17:27;;;;;;;;;;;13.30;76.00;;;;;;5034672;28;19921;-49
2022/04/21 08:19:52;;;;;;;;;;;13.40;76.50;;;;;;5028472;28;19924;-49
2022/04/21 08:22:18;;;;;;;;;;;13.60;76.20;;;;;;5031889;28;19917;-49
2022/04/21 08:32:56;;;;;;;;;;;13.80;73.30;;;;;;5028297;28;20380;-52
2022/04/21 08:35:22;;;;;;;;;;;13.90;73.90;;;;;;5038924;28;19995;-49
2022/04/21 08:37:50;;;;;;;;;;;14.00;73.90;;;;;;5035958;28;19920;-51
2022/04/21 08:40:18;;;;;;;;;;;14.00;72.30;;;;;;5028234;28;20345;-51
2022/04/21 08:42:44;;;;;;;;;;;14.10;73.10;;;;;;5029671;28;19921;-49
2022/04/21 08:45:10;;;;;;;;;;;14.20;73.10;;;;;;5042393;28;19927;-49
2022/04/21 08:47:39;;;;;;;;;;;14.30;72.80;;;;;;5037615;28;19939;-49
2022/04/21 08:50:06;;;;;;;;;;;14.40;72.00;;;;;;5035474;28;19921;-49
2022/04/21 08:52:32;;;;;;;;;;;14.50;71.00;;;;;;5033317;28;20437;-49
2022/04/21 08:54:58;;;;;;;;;;;14.60;70.20;;;;;;5039015;28;20360;-49
2022/04/21 08:57:23;;;;;;;;;;;14.70;70.40;;;;;;5030280;28;19928;-49
2022/04/21 08:59:49;;;;;;;;;;;14.80;69.80;;;;;;5033847;28;19987;-50
2022/04/21 09:02:14;;;;;;;;;;;14.80;69.80;;;;;;5029981;28;19917;-51
2022/04/21 09:04:41;;;;;;;;;;;14.90;69.30;;;;;;5026795;28;20452;-49
2022/04/21 09:07:20;;;;;;;;;;;14.90;72.20;;;;;;5038418;28;19925;-54
2022/04/21 09:10:02;;;;;;;;;;;15.00;70.80;;;;;;5032371;28;19932;-50
2022/04/21 09:12:28;;;;;;;;;;;15.10;70.00;;;;;;5034538;28;19924;-49
2022/04/21 09:14:53;;;;;;;;;;;15.10;69.20;;;;;;5035066;28;20391;-51
2022/04/21 09:17:19;;;;;;;;;;;15.20;69.50;;;;;;5031562;28;20364;-50
2022/04/21 09:19:54;;;;;;;;;;;15.30;68.60;;;;;;5027003;28;19921;-49
2022/04/21 09:22:19;;;;;;;;;;;15.30;69.20;;;;;;5039340;28;19974;-50
2022/04/21 09:24:45;;;;;;;;;;;15.30;70.10;;;;;;5036849;28;20012;-50
2022/04/21 09:27:10;;;;;;;;;;;15.40;68.50;;;;;;5027008;28;20027;-49
2022/04/21 09:29:37;;;;;;;;;;;15.40;67.50;;;;;;5048906;28;19967;-52
2022/04/21 09:32:03;;;;;;;;;;;15.50;67.40;;;;;;5028072;28;19917;-51
2022/04/21 09:34:29;;;;;;;;;;;15.50;67.90;;;;;;5039827;28;19932;-49
2022/04/21 09:36:56;;;;;;;;;;;15.60;67.80;;;;;;5042880;28;19946;-53
2022/04/21 09:39:22;;;;;;;;;;;15.60;66.90;;;;;;5032938;28;19921;-52
2022/04/21 09:41:51;;;;;;;;;;;15.60;66.10;;;;;;5037469;28;20393;-51
2022/04/21 09:47:00;;;;;;;;;;;15.70;66.70;;;;;;5028877;28;19921;-52
2022/04/21 09:49:36;;;;;;;;;;;15.80;66.60;;;;;;5025766;28;19920;-50
2022/04/21 09:52:02;;;;;;;;;;;15.90;66.10;;;;;;5040534;28;19924;-50
2022/04/21 09:54:28;;;;;;;;;;;16.00;66.00;;;;;;5031939;28;20390;-49
2022/04/21 09:56:53;;;;;;;;;;;16.00;65.50;;;;;;5039014;28;20008;-49
2022/04/21 09:59:19;;;;;;;;;;;16.00;65.70;;;;;;5033851;28;20358;-49
2022/04/21 10:01:44;;;;;;;;;;;16.00;65.60;;;;;;5026552;28;19920;-52
2022/04/21 10:04:13;;;;;;;;;;;16.00;66.00;;;;;;5029782;28;19916;-50
2022/04/21 10:06:39;;;;;;;;;;;16.00;64.90;;;;;;5040349;28;19923;-51
2022/04/21 10:09:05;;;;;;;;;;;16.00;64.80;;;;;;5028382;28;20271;-49
2022/04/21 10:11:31;;;;;;;;;;;16.10;66.00;;;;;;5029116;28;19944;-51
2022/04/21 10:13:57;;;;;;;;;;;16.30;65.30;;;;;;5035172;28;19968;-49
2022/04/21 10:16:22;;;;;;;;;;;16.30;66.30;;;;;;5026103;28;20429;-50
2022/04/21 10:18:50;;;;;;;;;;;16.40;65.00;;;;;;5025901;28;19921;-49
2022/04/21 10:21:30;;;;;;;;;;;16.40;64.50;;;;;;5030731;28;20007;-52
2022/04/21 10:23:56;;;;;;;;;;;16.40;65.50;;;;;;5041257;28;20386;-50
2022/04/21 10:26:34;;;;;;;;;;;16.40;63.60;;;;;;5039723;28;19960;-49
2022/04/21 10:29:08;;;;;;;;;;;16.40;63.70;;;;;;5025071;28;19975;-50
2022/04/21 10:31:35;;;;;;;;;;;16.40;64.60;;;;;;5031320;28;19983;-51
2022/04/21 10:34:02;;;;;;;;;;;16.50;64.40;;;;;;5049224;28;19928;-49
2022/04/21 10:36:41;;;;;;;;;;;16.60;64.70;;;;;;5039306;28;20177;-49
2022/04/21 10:39:09;;;;;;;;;;;16.60;64.20;;;;;;5029368;28;19928;-49
2022/04/21 10:41:35;;;;;;;;;;;16.60;63.30;;;;;;5031046;28;20270;-49
2022/04/21 10:44:01;;;;;;;;;;;16.60;62.90;;;;;;5030320;28;19947;-49
2022/04/21 10:46:29;;;;;;;;;;;16.60;64.60;;;;;;5037915;28;19921;-50
2022/04/21 10:48:55;;;;;;;;;;;16.50;64.30;;;;;;5048663;28;19924;-52
2022/04/21 10:51:39;;;;;;;;;;;16.60;65.40;;;;;;5038439;28;19917;-49
2022/04/21 10:59:50;;;;;;;;;;;16.80;65.30;;;;;;5038452;28;20426;-49
2022/04/21 11:02:16;;;;;;;;;;;16.90;65.30;;;;;;5030272;28;20370;-50
2022/04/21 11:04:42;;;;;;;;;;;17.00;63.50;;;;;;5047816;28;19916;-49
2022/04/21 11:07:11;;;;;;;;;;;17.10;63.40;;;;;;5047286;28;19916;-49
2022/04/21 11:09:38;;;;;;;;;;;17.20;64.40;;;;;;5044520;28;20011;-53
2022/04/21 11:12:04;;;;;;;;;;;17.10;63.00;;;;;;5028358;28;19979;-49
2022/04/21 11:14:32;;;;;;;;;;;17.10;62.40;;;;;;5027737;28;19952;-50
2022/04/21 11:17:01;;;;;;;;;;;17.20;63.00;;;;;;5042429;28;19921;-50
2022/04/21 11:19:31;;;;;;;;;;;17.20;62.90;;;;;;5043299;28;19920;-49
2022/04/21 11:22:01;;;;;;;;;;;17.30;62.70;;;;;;5036328;28;20004;-50
2022/04/21 11:24:26;;;;;;;;;;;17.40;62.50;;;;;;5027758;28;19944;-49
2022/04/21 11:26:56;;;;;;;;;;;17.60;63.60;;;;;;5043437;28;20378;-50
2022/04/21 11:29:22;;;;;;;;;;;17.60;60.70;;;;;;5050176;28;19924;-51
2022/04/21 11:31:47;;;;;;;;;;;17.60;62.20;;;;;;5032446;28;19917;-52
2022/04/21 11:34:20;;;;;;;;;;;17.70;60.70;;;;;;5039446;28;19956;-50
2022/04/21 11:36:46;;;;;;;;;;;17.80;61.80;;;;;;5051421;28;20297;-49
2022/04/21 11:39:12;;;;;;;;;;;17.90;61.00;;;;;;5045983;28;19917;-50
2022/04/21 11:41:44;;;;;;;;;;;17.90;59.90;;;;;;5037409;28;19916;-50
2022/04/21 11:44:10;;;;;;;;;;;17.90;60.90;;;;;;5051670;28;19916;-50
2022/04/21 11:46:39;;;;;;;;;;;18.00;61.30;;;;;;5041067;28;19921;-51
2022/04/21 11:49:04;;;;;;;;;;;18.00;60.00;;;;;;5064553;28;20378;-49
2022/04/21 11:51:30;;;;;;;;;;;18.00;60.20;;;;;;5040407;28;19916;-50
2022/04/21 11:54:02;;;;;;;;;;;17.90;61.90;;;;;;5041058;28;19950;-50
2022/04/21 11:56:28;;;;;;;;;;;17.90;62.40;;;;;;5051394;28;20374;-50
2022/04/21 11:58:53;;;;;;;;;;;18.00;63.40;;;;;;5050011;28;19916;-50
2022/04/21 12:06:57;;;;;;;;;;;18.30;60.90;;;;;;5039209;28;19917;-49
2022/04/21 12:09:28;;;;;;;;;;;18.20;58.40;;;;;;5043648;28;20378;-49
2022/04/21 12:11:53;;;;;;;;;;;18.00;60.50;;;;;;5043334;28;19916;-51
2022/04/21 12:14:19;;;;;;;;;;;18.00;60.80;;;;;;5051658;28;19923;-50
2022/04/21 12:16:45;;;;;;;;;;;17.90;60.10;;;;;;5040106;28;19921;-50
2022/04/21 12:19:11;;;;;;;;;;;17.80;60.30;;;;;;5039502;28;19970;-50
2022/04/21 12:21:36;;;;;;;;;;;17.70;60.10;;;;;;5049087;28;20370;-51
2022/04/21 12:24:14;;;;;;;;;;;17.60;61.30;;;;;;5050491;28;19916;-50
2022/04/21 12:26:49;;;;;;;;;;;17.70;61.00;;;;;;5051099;28;19923;-50
2022/04/21 12:29:15;;;;;;;;;;;17.70;60.90;;;;;;5049752;28;20015;-50
2022/04/21 12:31:41;;;;;;;;;;;17.80;61.50;;;;;;5048192;28;20007;-50
2022/04/21 12:34:07;;;;;;;;;;;17.80;59.80;;;;;;5030429;28;19920;-51
2022/04/21 12:36:32;;;;;;;;;;;17.90;61.20;;;;;;5030301;28;19921;-51
2022/04/21 12:39:00;;;;;;;;;;;17.90;60.00;;;;;;5051100;28;20015;-50
2022/04/21 12:41:26;;;;;;;;;;;18.00;60.10;;;;;;5050382;28;19924;-50
2022/04/21 12:43:52;;;;;;;;;;;18.20;61.30;;;;;;5047917;28;20297;-50
2022/04/21 12:46:19;;;;;;;;;;;18.20;61.40;;;;;;5030682;28;19916;-50
2022/04/21 12:48:50;;;;;;;;;;;18.30;58.80;;;;;;5032090;28;19917;-50
2022/04/21 12:51:17;;;;;;;;;;;18.20;60.60;;;;;;5031222;28;19931;-50
2022/04/21 12:53:42;;;;;;;;;;;18.30;61.00;;;;;;5033121;28;20400;-50
2022/04/21 12:56:12;;;;;;;;;;;18.40;59.90;;;;;;5040627;28;19964;-49
2022/04/21 12:58:37;;;;;;;;;;;18.30;60.00;;;;;;5032661;28;19917;-53
2022/04/21 13:01:05;;;;;;;;;;;18.20;60.70;;;;;;5039473;28;19917;-50
2022/04/21 13:03:32;;;;;;;;;;;18.30;59.40;;;;;;5030719;28;20386;-50
2022/04/21 13:05:57;;;;;;;;;;;18.40;60.20;;;;;;5036222;28;19920;-50
2022/04/21 13:08:24;;;;;;;;;;;18.40;59.50;;;;;;5050762;28;19916;-50
2022/04/21 13:10:50;;;;;;;;;;;18.40;60.10;;;;;;5032926;28;19960;-50
2022/04/21 13:13:15;;;;;;;;;;;18.40;59.40;;;;;;5030633;28;19972;-50
2022/04/21 13:15:41;;;;;;;;;;;18.30;59.80;;;;;;5038371;28;19917;-50
2022/04/21 13:18:07;;;;;;;;;;;18.40;61.00;;;;;;5049249;28;19924;-50
2022/04/21 13:23:16;;;;;;;;;;;18.50;60.10;;;;;;5030599;28;19921;-50
2022/04/21 13:25:42;;;;;;;;;;;18.50;60.60;;;;;;5031098;28;20007;-50
2022/04/21 13:28:08;;;;;;;;;;;18.50;59.70;;;;;;5030550;28;19921;-50
2022/04/21 13:30:34;;;;;;;;;;;18.50;60.30;;;;;;5030212;28;20410;-49
2022/04/21 13:35:43;;;;;;;;;;;18.40;60.30;;;;;;5030665;28;19923;-47
2022/04/21 13:38:09;;;;;;;;;;;18.50;60.10;;;;;;5030730;28;20275;-48
2022/04/21 13:40:34;;;;;;;;;;;18.50;61.40;;;;;;5033410;28;20478;-48
2022/04/21 13:43:00;;;;;;;;;;;18.60;59.20;;;;;;5030837;28;19921;-50
2022/04/21 13:45:25;;;;;;;;;;;18.70;60.10;;;;;;5036192;28;20370;-48
2022/04/21 13:47:51;;;;;;;;;;;18.70;59.30;;;;;;5036599;28;19923;-50
2022/04/21 13:50:17;;;;;;;;;;;18.70;59.60;;;;;;5035249;28;20328;-49
2022/04/21 13:52:42;;;;;;;;;;;18.70;61.30;;;;;;5034177;28;19917;-49
2022/04/21 13:55:09;;;;;;;;;;;18.70;60.30;;;;;;5041583;28;19960;-48
2022/04/21 13:57:34;;;;;;;;;;;18.80;60.50;;;;;;5045620;28;20378;-49
2022/04/21 14:00:00;;;;;;;;;;;18.80;59.20;;;;;;5043930;28;19924;-49
2022/04/21 14:02:26;;;;;;;;;;;18.80;58.90;;;;;;5031171;28;19928;-48
2022/04/21 14:04:51;;;;;;;;;;;18.70;60.60;;;;;;5036718;28;19921;-48
2022/04/21 14:07:16;;;;;;;;;;;18.60;59.00;;;;;;5046967;28;19971;-48
2022/04/21 14:09:42;;;;;;;;;;;18.50;60.20;;;;;;5040207;28;20403;-48
2022/04/21 14:12:09;;;;;;;;;;;18.50;60.50;;;;;;5036662;28;20313;-49
2022/04/21 14:14:34;;;;;;;;;;;18.50;59.50;;;;;;5033248;28;19970;-50
2022/04/21 14:17:01;;;;;;;;;;;18.40;59.40;;;;;;5037399;28;19929;-51
2022/04/21 14:19:28;;;;;;;;;;;18.40;59.60;;;;;;5038654;28;20405;-48
2022/04/21 14:21:53;;;;;;;;;;;18.30;59.70;;;;;;5046651;28;19917;-50
2022/04/21 14:24:19;;;;;;;;;;;18.30;59.60;;;;;;5054009;28;19924;-47
2022/04/21 14:26:44;;;;;;;;;;;18.20;60.40;;;;;;5044611;28;20306;-47
2022/04/21 14:29:10;;;;;;;;;;;18.10;59.70;;;;;;5034764;28;19970;-48
2022/04/21 14:31:35;;;;;;;;;;;18.20;60.80;;;;;;5037790;28;20059;-49
2022/04/21 14:34:01;;;;;;;;;;;18.20;60.60;;;;;;5053682;28;19923;-49
2022/04/21 14:36:27;;;;;;;;;;;18.20;61.60;;;;;;5052337;28;20018;-51
2022/04/21 14:44:20;;;;;;;;;;;18.30;60.70;;;;;;5034220;28;20373;-52
2022/04/21 14:46:49;;;;;;;;;;;18.30;59.60;;;;;;5033577;28;19921;-48
2022/04/21 14:49:16;;;;;;;;;;;18.20;61.20;;;;;;5033398;28;19967;-48
2022/04/21 14:51:41;;;;;;;;;;;18.20;60.30;;;;;;5034229;28;19924;-48
2022/04/21 14:54:07;;;;;;;;;;;18.10;60.30;;;;;;5052105;28;19916;-51
2022/04/21 14:56:34;;;;;;;;;;;18.20;61.00;;;;;;5051652;28;19924;-52
2022/04/21 14:59:00;;;;;;;;;;;18.20;60.40;;;;;;5051436;28;19963;-48
2022/04/21 15:01:25;;;;;;;;;;;18.20;61.50;;;;;;5049868;28;19920;-49
2022/04/21 15:03:51;;;;;;;;;;;18.30;61.30;;;;;;5050521;28;19916;-52
2022/04/21 15:06:17;;;;;;;;;;;18.30;60.90;;;;;;5047838;28;20424;-48
2022/04/21 15:08:42;;;;;;;;;;;18.40;60.60;;;;;;5033071;28;20400;-48
2022/04/21 15:11:08;;;;;;;;;;;18.50;61.80;;;;;;5033965;28;19975;-48
2022/04/21 15:13:36;;;;;;;;;;;18.40;61.10;;;;;;5033319;28;20440;-47
2022/04/21 15:16:03;;;;;;;;;;;18.40;61.50;;;;;;5032536;28;19944;-49
2022/04/21 15:18:28;;;;;;;;;;;18.40;62.20;;;;;;5032136;28;20306;-48
2022/04/21 15:20:55;;;;;;;;;;;18.40;61.50;;;;;;5034102;28;19932;-50
2022/04/21 15:23:20;;;;;;;;;;;18.40;60.90;;;;;;5035495;28;19917;-50